Lawnside, New Jersey
Current Conditions -  °F | °C
As of 3:21 AM on Tuesday 27 Jan 2015 (Local Time) from KVAY Reporting Station
Light Snow Light Snow  
Wind Chill: 12°   Ceiling: 2300
Heat Index: 24°   Visibility: 1.5mi
Dew Point: 20°   Wind: 13mph
Humidity: 84%   Direction: 340°NNW
Pressure: 29.69"   Gusts: NA
Location:  39.87°N, 75.03°W
Report Text: KVAY 270821Z AUTO 34011KT 1 1/2SM -SN BR SCT014 OVC023 M04/M07 A2969 RMK AO2 P0000 T10441067
Loading
Personal Weather Stations






























Interactive Weather Map New forecast layout! Learn more

10-Day Weather Forecast

Advertisements
Track Severe Weather on mobile